Charleston Air Force Base-International Airport
KCHS : rendu visible

Aérodrome :











RETROUVEZ-NOUS SUR...

 
LOGIN :

S'inscrire | Disclaimer

   EN    FR    IT 

 









Légende :    VFR   VFR Marginal   IFR   IFR Intensif   IFR Très Intensif
Visi : 
Plafond : 
>= 8 km
>= 3000ft
5 à 8 km
1000 à 3000 ft
1500m à 5 km
500 à 1000 ft
800 à 1500m
200 à 500 ft
< 800m
< 200 ft
Symboles :   Orages  Brouillard  Fortes neiges  Fortes précipitations  Vent > 20 kt






- Altitude de l'aérodrome : 46 ft
- Code IATA : CHS


KCHS - Charleston Air Force Base-International

DERNIER METAR :
  • 230956Z 00000KT 10SM CLR M01/M03 A3034 RMK AO2 SLP272 T10111028 $

METARs EXPIRÉS :
  • 230856Z 00000KT 10SM CLR M01/M02 A3032 RMK AO2 SLP267 T10061022 55009 $
  • 230756Z 00000KT 10SM CLR M01/M02 A3032 RMK AO2 SLP265 T10061022 $

TAF KCHS
Valide du 23 à 06h jusqu'au 24 à 06h UTC


230525Z 2306/2406 VRB05KT P6SM BKN250



MET'MAP, la Météo Aéronautique d'un coup d'oeil ! - Copyright ORBIFLY Décembre 2007 - Disclaimer

ORBIFLY MET'MAP TEAM :

Programmation & Développement : Alexandra Zaïnal
Sur une idée originale de : Baudouin d'Aumeries
Assistance à la programmation : Marc-Olivier Méhu
Soutien technique & logistique : Manuel Goepfert

Contact : metmap@orbifly.com




SOURCES & CREDITS :

   NOAA       Earth
Advisory